createdAt,value
2019-05-06T00:00:53.443Z,102018.23
2019-05-06T00:03:10.181Z,102019.94
2019-05-06T00:05:40.112Z,102018.84
2019-05-06T00:08:16.279Z,102017.02
2019-05-06T00:10:44.724Z,102012.08
2019-05-06T00:13:13.961Z,102012.08
2019-05-06T00:15:40.764Z,102019.90
2019-05-06T00:18:14.768Z,102012.75
2019-05-06T00:21:04.774Z,102014.79
2019-05-06T00:23:38.217Z,102016.59
2019-05-06T00:26:40.333Z,102015.16
2019-05-06T00:29:13.979Z,102001.81
2019-05-06T00:31:41.069Z,102007.42
2019-05-06T00:34:08.143Z,102006.93
2019-05-06T00:36:35.136Z,102006.64
2019-05-06T00:39:17.111Z,101999.54
2019-05-06T00:41:46.316Z,101994.12
2019-05-06T00:44:15.113Z,101994.12
2019-05-06T00:46:43.762Z,101993.59
2019-05-06T00:49:10.797Z,101993.59
2019-05-06T00:51:37.796Z,101995.03
2019-05-06T00:54:14.411Z,101989.30
2019-05-06T00:56:41.184Z,101989.42
2019-05-06T00:59:14.332Z,101972.70
2019-05-06T01:01:43.533Z,101972.70
2019-05-06T01:04:10.612Z,101980.45
2019-05-06T01:06:43.880Z,101982.17
2019-05-06T01:09:15.515Z,101979.95
2019-05-06T01:11:44.909Z,101978.42
2019-05-06T01:14:23.655Z,101976.86
2019-05-06T01:16:50.660Z,101976.56
2019-05-06T01:19:17.805Z,101976.99
2019-05-06T01:21:46.062Z,101976.39
2019-05-06T01:24:14.726Z,101976.39
2019-05-06T01:26:41.854Z,101976.50
2019-05-06T01:29:08.875Z,101969.35
2019-05-06T01:31:42.715Z,101965.73
2019-05-06T01:34:11.430Z,101964.72
2019-05-06T01:36:38.437Z,101968.83
2019-05-06T01:39:24.763Z,101963.42
2019-05-06T01:42:16.587Z,101960.39
2019-05-06T01:44:44.298Z,101959.17
2019-05-06T01:47:15.985Z,101949.73
2019-05-06T01:49:56.060Z,101949.73
2019-05-06T01:52:24.047Z,101961.70
2019-05-06T01:54:51.187Z,101957.51
2019-05-06T01:57:20.903Z,101957.02
2019-05-06T01:59:47.898Z,101957.80
2019-05-06T02:02:15.046Z,101958.59
2019-05-06T02:04:47.238Z,101951.86
2019-05-06T02:07:17.516Z,101957.69
2019-05-06T02:09:46.809Z,101951.81
2019-05-06T02:12:19.049Z,101951.81
2019-05-06T02:14:46.045Z,101961.28
2019-05-06T02:17:15.788Z,101955.26
2019-05-06T02:19:46.595Z,101950.73
2019-05-06T02:22:20.321Z,101951.63
2019-05-06T02:25:00.781Z,101950.20
2019-05-06T02:27:29.543Z,101946.03
2019-05-06T02:30:05.435Z,101949.48
2019-05-06T02:32:48.375Z,101943.10
2019-05-06T02:35:34.807Z,101952.27
2019-05-06T02:38:07.972Z,101947.69
2019-05-06T02:40:37.759Z,101943.28
2019-05-06T02:43:04.901Z,101941.72
2019-05-06T02:45:33.459Z,101942.63
2019-05-06T02:48:13.966Z,101933.73
2019-05-06T02:50:59.308Z,101928.72
2019-05-06T02:53:27.783Z,101928.72
2019-05-06T02:55:55.107Z,101925.67
2019-05-06T02:58:23.672Z,101927.20
2019-05-06T03:00:53.709Z,101926.25
2019-05-06T03:03:23.296Z,101932.80
2019-05-06T03:05:53.238Z,101927.80
2019-05-06T03:08:19.426Z,101931.19
2019-05-06T03:10:46.422Z,101928.09
2019-05-06T03:13:23.750Z,101925.55
2019-05-06T03:15:56.679Z,101930.67
2019-05-06T03:18:25.901Z,101929.95
2019-05-06T03:21:37.063Z,101921.19
2019-05-06T03:24:23.924Z,101924.06
2019-05-06T03:27:04.459Z,101924.06
2019-05-06T03:29:33.387Z,101918.50
2019-05-06T03:32:07.678Z,101912.38
2019-05-06T03:34:57.107Z,101903.64
2019-05-06T03:37:07.175Z,101913.58
2019-05-06T03:39:33.881Z,101910.35
2019-05-06T03:42:04.208Z,101915.53
2019-05-06T03:44:32.891Z,101908.39
2019-05-06T03:47:38.532Z,101908.09
2019-05-06T03:50:06.047Z,101908.09
2019-05-06T03:52:36.106Z,101905.27
2019-05-06T03:55:05.709Z,101903.44
2019-05-06T03:57:38.984Z,101905.45
2019-05-06T04:00:12.990Z,101897.59
2019-05-06T04:02:39.995Z,101899.19
2019-05-06T04:05:08.484Z,101899.09
2019-05-06T04:07:39.247Z,101898.61
2019-05-06T04:10:07.007Z,101891.89
2019-05-06T04:12:36.165Z,101897.61
2019-05-06T04:15:04.282Z,101894.09
2019-05-06T04:17:43.992Z,101894.69
2019-05-06T04:20:39.966Z,101897.72
2019-05-06T04:23:23.561Z,101898.44
2019-05-06T04:25:58.770Z,101898.56
2019-05-06T04:28:33.950Z,101906.73
2019-05-06T04:30:58.160Z,101904.11
2019-05-06T04:33:25.608Z,101905.58
2019-05-06T04:35:54.303Z,101901.83
2019-05-06T04:38:23.524Z,101901.39
2019-05-06T04:40:54.503Z,101900.98
2019-05-06T04:43:26.704Z,101890.31
2019-05-06T04:46:02.884Z,101900.08
2019-05-06T04:48:29.045Z,101896.91
2019-05-06T04:50:56.191Z,101895.88
2019-05-06T04:53:26.836Z,101905.16
2019-05-06T04:55:53.947Z,101904.64
2019-05-06T04:58:23.291Z,101903.72
2019-05-06T05:00:53.059Z,101900.27
2019-05-06T05:03:44.673Z,101897.89
2019-05-06T05:06:13.603Z,101904.23
2019-05-06T05:08:43.555Z,101897.72
2019-05-06T05:11:22.690Z,101900.00
2019-05-06T05:14:14.137Z,101897.89
2019-05-06T05:17:06.590Z,101901.45
2019-05-06T05:19:33.796Z,101903.21
2019-05-06T05:22:06.941Z,101899.14
2019-05-06T05:24:35.041Z,101898.03
2019-05-06T05:27:03.152Z,101899.14
2019-05-06T05:29:32.513Z,101892.75
2019-05-06T05:31:59.674Z,101898.69
2019-05-06T05:34:46.203Z,101892.33
2019-05-06T05:37:13.328Z,101886.91
2019-05-06T05:39:42.458Z,101890.84
2019-05-06T05:42:22.148Z,101881.25
2019-05-06T05:44:55.134Z,101892.04
2019-05-06T05:47:22.223Z,101893.52
2019-05-06T05:50:09.445Z,101891.11
2019-05-06T05:52:38.095Z,101896.20
2019-05-06T05:55:07.533Z,101888.76
2019-05-06T05:57:34.632Z,101888.76
2019-05-06T06:00:06.660Z,101887.36
2019-05-06T06:02:33.709Z,101885.66
2019-05-06T06:05:02.503Z,101885.66
2019-05-06T06:07:37.405Z,101885.09
2019-05-06T06:10:23.470Z,101885.09
2019-05-06T06:12:53.326Z,101891.41
2019-05-06T06:15:44.623Z,101898.55
2019-05-06T06:18:20.025Z,101888.20
2019-05-06T06:21:17.364Z,101894.55
2019-05-06T06:23:34.946Z,101923.85
2019-05-06T06:26:06.473Z,101923.85
2019-05-06T06:28:33.518Z,101916.69
2019-05-06T06:31:29.238Z,101911.28
2019-05-06T06:34:03.732Z,101904.42
2019-05-06T06:36:55.306Z,101911.09
2019-05-06T06:39:25.333Z,101904.45
2019-05-06T06:41:52.333Z,101903.84
2019-05-06T06:44:26.176Z,101910.36
2019-05-06T06:46:53.233Z,101900.92
2019-05-06T06:49:22.254Z,101907.52
2019-05-06T06:51:53.182Z,101900.06
2019-05-06T06:54:22.994Z,101906.42
2019-05-06T06:57:09.432Z,101907.45
2019-05-06T06:59:48.773Z,101909.17
2019-05-06T07:02:32.786Z,101899.06
2019-05-06T07:05:22.396Z,101901.00
2019-05-06T07:07:43.585Z,101902.23
2019-05-06T07:10:12.147Z,101902.23
2019-05-06T07:12:42.709Z,101902.97
2019-05-06T07:15:09.945Z,101896.27
2019-05-06T07:17:36.996Z,101906.71
2019-05-06T07:20:07.576Z,101899.62
2019-05-06T07:22:37.491Z,101902.55
2019-05-06T07:25:06.553Z,101906.94
2019-05-06T07:27:34.809Z,101913.73
2019-05-06T07:30:03.030Z,101898.20
2019-05-06T07:32:32.779Z,101910.13
2019-05-06T07:35:14.189Z,101903.41
2019-05-06T07:37:42.262Z,101903.12
2019-05-06T07:40:09.952Z,101896.48
2019-05-06T07:42:43.012Z,101896.48
2019-05-06T07:45:26.054Z,101906.78
2019-05-06T07:47:59.273Z,101921.41
2019-05-06T07:50:28.446Z,101905.88
2019-05-06T07:53:08.220Z,101905.88
2019-05-06T07:55:36.213Z,101911.61
2019-05-06T07:58:04.853Z,101911.25
2019-05-06T08:00:33.799Z,101911.25
2019-05-06T08:03:04.016Z,101910.26
2019-05-06T08:05:32.432Z,101911.41
2019-05-06T08:07:59.749Z,101909.14
2019-05-06T08:10:26.887Z,101922.94
2019-05-06T08:12:59.303Z,101911.42
2019-05-06T08:15:32.983Z,101910.20
2019-05-06T08:18:00.056Z,101919.06
2019-05-06T08:20:42.759Z,101911.49
2019-05-06T08:23:42.827Z,101912.81
2019-05-06T08:26:15.635Z,101912.81
2019-05-06T08:28:41.549Z,101909.45
2019-05-06T08:31:26.082Z,101917.34
2019-05-06T08:33:55.899Z,101922.56
2019-05-06T08:36:30.401Z,101904.12
2019-05-06T08:38:58.506Z,101909.78
2019-05-06T08:41:33.384Z,101909.78
2019-05-06T08:44:02.371Z,101906.53
2019-05-06T08:46:33.256Z,101906.53
2019-05-06T08:49:06.907Z,101905.97
2019-05-06T08:51:58.021Z,101906.95
2019-05-06T08:54:45.039Z,101914.84
2019-05-06T08:57:15.738Z,101912.59
2019-05-06T08:59:43.972Z,101904.93
2019-05-06T09:02:13.548Z,101907.19
2019-05-06T09:04:40.036Z,101907.22
2019-05-06T09:07:14.841Z,101910.09
2019-05-06T09:09:42.226Z,101913.14
2019-05-06T09:12:13.053Z,101916.72
2019-05-06T09:14:42.553Z,101921.97
2019-05-06T09:17:12.133Z,101908.39
2019-05-06T09:19:44.897Z,101913.95
2019-05-06T09:22:12.951Z,101900.03
2019-05-06T09:24:42.467Z,101903.83
2019-05-06T09:27:22.633Z,101906.80
2019-05-06T09:29:55.627Z,101914.23
2019-05-06T09:32:36.275Z,101916.39
2019-05-06T09:35:08.756Z,101916.28
2019-05-06T09:37:35.777Z,101916.52
2019-05-06T09:40:03.163Z,101900.83
2019-05-06T09:42:32.162Z,101908.69
2019-05-06T09:45:02.395Z,101909.77
2019-05-06T09:48:03.090Z,101911.64
2019-05-06T09:50:37.973Z,101901.09
2019-05-06T09:53:16.084Z,101906.47
2019-05-06T09:56:03.324Z,101920.08
2019-05-06T09:58:34.558Z,101911.08
2019-05-06T10:01:03.541Z,101904.35
2019-05-06T10:03:32.242Z,101918.88
2019-05-06T10:06:02.753Z,101910.23
2019-05-06T10:08:32.324Z,101913.50
2019-05-06T10:11:00.044Z,101912.63
2019-05-06T10:13:29.819Z,101912.63
2019-05-06T10:15:59.108Z,101917.41
2019-05-06T10:18:26.103Z,101919.89
2019-05-06T10:20:53.158Z,101917.36
2019-05-06T10:23:22.653Z,101913.38
2019-05-06T10:25:49.677Z,101914.84
2019-05-06T10:28:45.637Z,101915.77
2019-05-06T10:31:14.787Z,101926.14
2019-05-06T10:33:59.961Z,101923.81
2019-05-06T10:36:34.216Z,101917.16
2019-05-06T10:39:06.164Z,101922.77
2019-05-06T10:41:36.878Z,101918.64
2019-05-06T10:44:33.091Z,101920.08
2019-05-06T10:47:00.091Z,101927.67
2019-05-06T10:49:27.117Z,101929.05
2019-05-06T10:52:12.842Z,101920.64
2019-05-06T10:54:42.016Z,101919.72
2019-05-06T10:57:18.188Z,101910.69
2019-05-06T10:59:45.267Z,101932.66
2019-05-06T11:02:23.821Z,101927.99
2019-05-06T11:04:56.892Z,101927.76
2019-05-06T11:07:31.470Z,101929.36
2019-05-06T11:09:53.393Z,101915.08
2019-05-06T11:12:21.867Z,101912.92
2019-05-06T11:14:55.717Z,101913.77
2019-05-06T11:17:26.822Z,101922.91
2019-05-06T11:19:59.514Z,101910.84
2019-05-06T11:22:29.715Z,101910.84
2019-05-06T11:24:59.232Z,101916.06
2019-05-06T11:27:32.133Z,101916.06
2019-05-06T11:29:56.511Z,101918.78
2019-05-06T11:32:44.417Z,101922.45
2019-05-06T11:35:17.268Z,101935.14
2019-05-06T11:38:12.143Z,101934.55
2019-05-06T11:40:39.301Z,101950.34
2019-05-06T11:43:11.999Z,101954.91
2019-05-06T11:45:39.084Z,101954.91
2019-05-06T11:48:06.131Z,101941.03
2019-05-06T11:50:33.529Z,101946.08
2019-05-06T11:53:02.431Z,101938.57
2019-05-06T11:55:34.430Z,101933.22
2019-05-06T11:57:58.638Z,101933.22
2019-05-06T12:00:35.597Z,101930.95
2019-05-06T12:03:02.247Z,101925.54
2019-05-06T12:05:29.051Z,101920.92
2019-05-06T12:08:07.793Z,101912.33
2019-05-06T12:10:33.342Z,101912.82
2019-05-06T12:13:04.787Z,101912.82
2019-05-06T12:15:31.880Z,101915.67
2019-05-06T12:18:03.628Z,101909.85
2019-05-06T12:20:32.988Z,101910.48
2019-05-06T12:23:03.853Z,101909.73
2019-05-06T12:25:31.777Z,101908.13
2019-05-06T12:27:58.809Z,101908.13
2019-05-06T12:30:25.826Z,101904.79
2019-05-06T12:33:13.007Z,101915.45
2019-05-06T12:35:43.969Z,101913.70
2019-05-06T12:38:28.712Z,101913.61
2019-05-06T12:40:48.035Z,101918.86
2019-05-06T12:43:35.016Z,101921.27
2019-05-06T12:46:15.203Z,101915.23
2019-05-06T12:48:46.120Z,101929.64
2019-05-06T12:51:14.579Z,101893.80
2019-05-06T12:53:44.652Z,101909.13
2019-05-06T12:56:21.943Z,101924.28
2019-05-06T12:58:55.887Z,101933.50
2019-05-06T13:01:33.500Z,101940.65
2019-05-06T13:04:00.022Z,101930.31
2019-05-06T13:06:27.085Z,101930.50
2019-05-06T13:09:01.657Z,101939.66
2019-05-06T13:11:25.350Z,101931.37
2019-05-06T13:14:00.341Z,101924.23
2019-05-06T13:16:26.169Z,101933.97
2019-05-06T13:18:54.904Z,101923.64
2019-05-06T13:21:22.425Z,101914.61
2019-05-06T13:23:53.255Z,101914.61
2019-05-06T13:26:22.274Z,101916.95
2019-05-06T13:28:54.094Z,101921.13
2019-05-06T13:31:25.480Z,101921.70
2019-05-06T13:33:59.531Z,101914.80
2019-05-06T13:36:27.959Z,101919.94
2019-05-06T13:39:09.614Z,101919.94
2019-05-06T13:41:26.065Z,101915.34
2019-05-06T13:44:07.902Z,101904.17
2019-05-06T13:46:39.264Z,101913.42
2019-05-06T13:49:32.109Z,101913.72
2019-05-06T13:52:05.238Z,101914.47
2019-05-06T13:54:35.353Z,101914.13
2019-05-06T13:57:12.451Z,101910.38
2019-05-06T13:59:39.877Z,101911.36
2019-05-06T14:02:44.532Z,101909.46
2019-05-06T14:05:12.204Z,101917.53
2019-05-06T14:07:39.290Z,101917.53
2019-05-06T14:10:09.854Z,101913.30
2019-05-06T14:12:42.427Z,101907.36
2019-05-06T14:15:14.245Z,101915.94
2019-05-06T14:17:52.468Z,101916.33
2019-05-06T14:20:19.486Z,101912.77
2019-05-06T14:22:49.477Z,101920.59
2019-05-06T14:25:38.344Z,101917.00
2019-05-06T14:28:15.313Z,101925.89
2019-05-06T14:31:02.976Z,101922.78
2019-05-06T14:33:37.560Z,101922.78
2019-05-06T14:36:04.588Z,101927.73
2019-05-06T14:38:32.900Z,101927.73
2019-05-06T14:41:13.153Z,101939.16
2019-05-06T14:43:45.529Z,101923.86
2019-05-06T14:46:12.593Z,101923.86
2019-05-06T14:48:39.599Z,101928.61
2019-05-06T14:51:06.622Z,101926.55
2019-05-06T14:53:33.678Z,101922.13
2019-05-06T14:56:05.160Z,101922.88
2019-05-06T14:58:32.262Z,101926.37
2019-05-06T15:00:59.324Z,101928.24
2019-05-06T15:03:32.568Z,101916.34
2019-05-06T15:05:59.525Z,101919.12
2019-05-06T15:08:26.608Z,101934.55
2019-05-06T15:10:53.629Z,101934.55
2019-05-06T15:13:22.876Z,101927.96
2019-05-06T15:15:49.633Z,101927.96
2019-05-06T15:18:22.468Z,101934.39
2019-05-06T15:21:29.292Z,101934.39
2019-05-06T15:23:32.661Z,101939.56
2019-05-06T15:25:59.709Z,101944.04
2019-05-06T15:28:28.804Z,101926.88
2019-05-06T15:31:05.971Z,101926.88
2019-05-06T15:33:36.886Z,101925.70
2019-05-06T15:36:13.689Z,101934.73
2019-05-06T15:38:49.527Z,101937.77
2019-05-06T15:41:18.032Z,101931.30
2019-05-06T15:43:45.076Z,101931.53
2019-05-06T15:46:12.286Z,101936.61
2019-05-06T15:48:48.342Z,101931.53
2019-05-06T15:51:17.439Z,101932.84
2019-05-06T15:53:44.470Z,101937.20
2019-05-06T15:56:12.273Z,101937.20
2019-05-06T15:58:39.346Z,101939.00
2019-05-06T16:01:06.357Z,101935.95
2019-05-06T16:03:33.662Z,101935.28
2019-05-06T16:06:02.010Z,101930.68
2019-05-06T16:08:32.221Z,101930.26
2019-05-06T16:10:59.322Z,101928.76
2019-05-06T16:13:26.345Z,101937.53
2019-05-06T16:15:53.405Z,101936.40
2019-05-06T16:18:24.362Z,101932.06
2019-05-06T16:20:51.389Z,101927.46
2019-05-06T16:23:27.154Z,101927.46
2019-05-06T16:25:54.198Z,101936.55
2019-05-06T16:28:22.452Z,101934.99
2019-05-06T16:30:53.513Z,101935.20
2019-05-06T16:33:23.387Z,101934.13
2019-05-06T16:35:57.242Z,101929.91
2019-05-06T16:38:27.080Z,101922.91
2019-05-06T16:41:09.104Z,101931.26
2019-05-06T16:43:28.822Z,101934.00
2019-05-06T16:45:56.968Z,101925.91
2019-05-06T16:48:37.907Z,101926.35
2019-05-06T16:51:05.031Z,101919.78
2019-05-06T16:53:37.578Z,101915.83
2019-05-06T16:56:18.899Z,101915.83
2019-05-06T16:58:52.558Z,101928.66
2019-05-06T17:01:22.092Z,101923.39
2019-05-06T17:04:08.418Z,101926.27
2019-05-06T17:06:37.395Z,101921.56
2019-05-06T17:09:17.311Z,101923.55
2019-05-06T17:11:35.970Z,101931.08
2019-05-06T17:14:06.026Z,101926.14
2019-05-06T17:16:34.177Z,101944.02
2019-05-06T17:19:04.447Z,101930.47
2019-05-06T17:21:36.084Z,101941.13
2019-05-06T17:24:08.113Z,101941.13
2019-05-06T17:26:38.883Z,101940.17
2019-05-06T17:29:32.328Z,101941.07
2019-05-06T17:32:06.688Z,101936.95
2019-05-06T17:34:36.786Z,101938.36
2019-05-06T17:37:13.115Z,101938.36
2019-05-06T17:39:42.340Z,101940.55
2019-05-06T17:42:16.246Z,101940.55
2019-05-06T17:44:47.865Z,101946.72
2019-05-06T17:47:29.079Z,101942.77
2019-05-06T17:49:56.175Z,101930.47
2019-05-06T17:52:23.223Z,101945.13
2019-05-06T17:54:52.606Z,101948.53
2019-05-06T17:57:19.267Z,101955.48
2019-05-06T17:59:48.136Z,101947.48
2019-05-06T18:02:19.189Z,101954.11
2019-05-06T18:04:45.938Z,101959.59
2019-05-06T18:07:17.150Z,101954.20
2019-05-06T18:09:44.202Z,101967.27
2019-05-06T18:12:12.091Z,101950.09
2019-05-06T18:14:43.258Z,101954.27
2019-05-06T18:17:12.464Z,101953.38
2019-05-06T18:19:39.670Z,101954.86
2019-05-06T18:22:06.721Z,101949.02
2019-05-06T18:24:38.090Z,101947.73
2019-05-06T18:27:06.443Z,101947.73
2019-05-06T18:29:39.248Z,101952.31
2019-05-06T18:32:06.872Z,101940.81
2019-05-06T18:34:36.998Z,101941.39
2019-05-06T18:37:04.298Z,101949.69
2019-05-06T18:39:33.767Z,101949.69
2019-05-06T18:42:15.747Z,101954.95
2019-05-06T18:44:33.242Z,101955.63
2019-05-06T18:47:09.046Z,101954.53
2019-05-06T18:49:36.058Z,101951.27
2019-05-06T18:52:07.062Z,101956.91
2019-05-06T18:54:34.157Z,101955.11
2019-05-06T18:57:04.315Z,101952.96
2019-05-06T18:59:33.234Z,101955.34
2019-05-06T19:02:09.117Z,101956.23
2019-05-06T19:04:52.138Z,101961.00
2019-05-06T19:07:24.097Z,101961.00
2019-05-06T19:10:06.204Z,101962.53
2019-05-06T19:12:40.614Z,101956.38
2019-05-06T19:15:04.150Z,101967.30
2019-05-06T19:17:33.432Z,101967.56
2019-05-06T19:20:02.795Z,101970.14
2019-05-06T19:22:32.309Z,101972.50
2019-05-06T19:24:58.814Z,101972.50
2019-05-06T19:27:26.290Z,101975.91
2019-05-06T19:29:54.607Z,101980.00
2019-05-06T19:32:29.598Z,101985.09
2019-05-06T19:34:56.671Z,101979.53
2019-05-06T19:37:27.905Z,101987.05
2019-05-06T19:39:56.652Z,101985.76
2019-05-06T19:42:23.646Z,101985.76
2019-05-06T19:44:54.268Z,101986.73
2019-05-06T19:47:28.573Z,101994.09
2019-05-06T19:50:04.001Z,101998.70
2019-05-06T19:52:34.330Z,101995.11
2019-05-06T19:55:03.080Z,102000.19
2019-05-06T19:57:32.234Z,102006.13
2019-05-06T19:59:59.270Z,102002.51
2019-05-06T20:02:32.026Z,102006.55
2019-05-06T20:05:03.422Z,102001.36
2019-05-06T20:08:02.842Z,102001.78
2019-05-06T20:10:49.674Z,102003.55
2019-05-06T20:13:16.704Z,102010.16
2019-05-06T20:15:43.726Z,102015.13
2019-05-06T20:18:12.940Z,102011.86
2019-05-06T20:20:42.870Z,102012.09
2019-05-06T20:23:12.329Z,102010.55
2019-05-06T20:25:42.793Z,102016.80
2019-05-06T20:28:08.984Z,102011.48
2019-05-06T20:30:36.139Z,102019.34
2019-05-06T20:33:04.620Z,102016.03
2019-05-06T20:35:32.376Z,102004.71
2019-05-06T20:37:59.346Z,101999.53
2019-05-06T20:40:26.370Z,102009.94
2019-05-06T20:42:53.443Z,102003.80
2019-05-06T20:45:22.325Z,102008.14
2019-05-06T20:47:49.406Z,102010.08
2019-05-06T20:50:16.483Z,102004.94
2019-05-06T20:52:43.530Z,102004.21
2019-05-06T20:55:15.906Z,102007.73
2019-05-06T20:57:48.142Z,102009.59
2019-05-06T21:00:26.075Z,102011.34
2019-05-06T21:02:56.300Z,102001.84
2019-05-06T21:05:23.397Z,102010.55
2019-05-06T21:07:52.618Z,102005.09
2019-05-06T21:10:22.037Z,102010.44
2019-05-06T21:12:50.423Z,102006.09
2019-05-06T21:15:27.128Z,102007.77
2019-05-06T21:17:54.156Z,102010.17
2019-05-06T21:20:27.912Z,102003.61
2019-05-06T21:22:54.969Z,102013.38
2019-05-06T21:25:27.329Z,102011.77
2019-05-06T21:27:55.498Z,102012.41
2019-05-06T21:30:24.433Z,102011.89
2019-05-06T21:32:54.073Z,102013.31
2019-05-06T21:35:23.920Z,102010.88
2019-05-06T21:37:52.940Z,102013.91
2019-05-06T21:40:39.803Z,102010.88
2019-05-06T21:43:12.832Z,102007.94
2019-05-06T21:45:39.674Z,102009.33
2019-05-06T21:48:06.682Z,102012.47
2019-05-06T21:50:33.932Z,102005.39
2019-05-06T21:53:02.751Z,102008.43
2019-05-06T21:55:32.187Z,102006.70
2019-05-06T21:57:58.860Z,102014.80
2019-05-06T22:00:40.417Z,102016.83
2019-05-06T22:03:07.453Z,102014.30
2019-05-06T22:05:34.475Z,102009.55
2019-05-06T22:08:02.101Z,102009.55
2019-05-06T22:10:29.258Z,102006.33
2019-05-06T22:12:59.858Z,102007.39
2019-05-06T22:15:33.475Z,102005.86
2019-05-06T22:17:58.266Z,102004.67
2019-05-06T22:20:25.294Z,102007.42
2019-05-06T22:22:52.308Z,102005.44
2019-05-06T22:25:26.776Z,102009.97
2019-05-06T22:27:53.801Z,102011.81
2019-05-06T22:30:23.718Z,102007.48
2019-05-06T22:32:49.770Z,102002.87
2019-05-06T22:35:16.936Z,102006.63
2019-05-06T22:37:45.047Z,102005.02
2019-05-06T22:40:12.609Z,101998.58
2019-05-06T22:42:39.627Z,102005.02
2019-05-06T22:45:08.090Z,102000.49
2019-05-06T22:47:36.303Z,102006.25
2019-05-06T22:50:08.556Z,101999.00
2019-05-06T22:52:35.925Z,102001.84
2019-05-06T22:55:03.974Z,102000.34
2019-05-06T22:57:37.386Z,101999.63
2019-05-06T23:00:07.186Z,102005.16
2019-05-06T23:02:57.267Z,102004.45
2019-05-06T23:05:24.269Z,102007.88
2019-05-06T23:07:53.220Z,102004.97
2019-05-06T23:10:25.218Z,102005.67
2019-05-06T23:12:54.546Z,102008.09
2019-05-06T23:15:21.586Z,102009.29
2019-05-06T23:17:48.643Z,102009.09
2019-05-06T23:20:17.728Z,102007.20
2019-05-06T23:22:44.795Z,102005.27
2019-05-06T23:25:13.124Z,102007.88
2019-05-06T23:27:43.854Z,102001.73
2019-05-06T23:30:12.559Z,102013.20
2019-05-06T23:32:42.491Z,102005.34
2019-05-06T23:35:12.803Z,101998.17
2019-05-06T23:38:16.049Z,102001.58
2019-05-06T23:41:22.013Z,102000.39
2019-05-06T23:44:25.453Z,102000.88
2019-05-06T23:47:31.463Z,102005.91
2019-05-06T23:50:34.817Z,102003.58
2019-05-06T23:53:38.042Z,102007.30
2019-05-06T23:56:43.271Z,102011.22
2019-05-06T23:59:12.529Z,102009.63
